createdAt,value
2023-07-06T00:04:25.995Z,21.84
2023-07-06T00:09:28.156Z,21.70
2023-07-06T00:14:30.325Z,21.67
2023-07-06T00:19:32.453Z,21.58
2023-07-06T00:24:34.858Z,21.50
2023-07-06T00:29:39.910Z,21.49
2023-07-06T00:34:45.314Z,21.39
2023-07-06T00:39:47.497Z,21.34
2023-07-06T00:44:53.445Z,21.35
2023-07-06T00:49:56.198Z,21.34
2023-07-06T00:55:01.363Z,21.36
2023-07-06T01:00:07.847Z,21.33
2023-07-06T01:05:12.189Z,21.35
2023-07-06T01:10:15.061Z,21.29
2023-07-06T01:15:17.847Z,21.28
2023-07-06T01:20:33.024Z,21.20
2023-07-06T01:26:06.705Z,21.15
2023-07-06T01:31:26.963Z,21.17
2023-07-06T01:36:54.845Z,21.10
2023-07-06T01:42:09.119Z,21.02
2023-07-06T01:47:11.481Z,21.03
2023-07-06T01:52:43.124Z,20.91
2023-07-06T01:58:11.964Z,20.92
2023-07-06T02:03:14.803Z,20.82
2023-07-06T02:08:18.458Z,20.80
2023-07-06T02:13:20.620Z,20.76
2023-07-06T02:18:22.808Z,20.60
2023-07-06T02:23:25.388Z,20.43
2023-07-06T02:28:28.348Z,20.38
2023-07-06T02:33:31.555Z,20.23
2023-07-06T02:38:35.208Z,20.09
2023-07-06T02:43:37.509Z,20.05
2023-07-06T02:48:41.012Z,19.95
2023-07-06T02:53:43.306Z,19.89
2023-07-06T02:58:45.388Z,19.92
2023-07-06T03:03:47.516Z,19.87
2023-07-06T03:08:49.671Z,19.81
2023-07-06T03:13:52.476Z,19.78
2023-07-06T03:18:54.611Z,19.70
2023-07-06T03:23:56.709Z,19.74
2023-07-06T03:28:58.892Z,19.77
2023-07-06T03:34:02.046Z,19.87
2023-07-06T03:39:04.318Z,19.91
2023-07-06T03:44:07.206Z,19.83
2023-07-06T03:49:11.221Z,19.81
2023-07-06T03:54:13.922Z,19.83
2023-07-06T03:59:16.010Z,19.88
2023-07-06T04:04:19.389Z,19.83
2023-07-06T04:09:21.554Z,19.84
2023-07-06T04:14:26.479Z,19.77
2023-07-06T04:19:29.970Z,19.85
2023-07-06T04:24:33.035Z,19.87
2023-07-06T04:29:35.761Z,19.91
2023-07-06T04:34:41.205Z,19.88
2023-07-06T04:39:43.635Z,19.89
2023-07-06T04:44:47.122Z,19.98
2023-07-06T04:49:49.345Z,20.12
2023-07-06T04:54:52.095Z,20.11
2023-07-06T04:59:54.316Z,20.18
2023-07-06T05:04:56.532Z,20.55
2023-07-06T05:09:58.612Z,20.80
2023-07-06T05:15:00.792Z,20.70
2023-07-06T05:20:03.280Z,20.83
2023-07-06T05:25:05.964Z,20.96
2023-07-06T05:30:08.685Z,20.99
2023-07-06T05:35:11.313Z,20.92
2023-07-06T05:40:13.468Z,20.94
2023-07-06T05:45:15.692Z,21.07
2023-07-06T05:50:17.908Z,21.01
2023-07-06T05:55:20.031Z,20.97
2023-07-06T06:00:22.318Z,20.52
2023-07-06T06:05:24.408Z,20.68
2023-07-06T06:10:26.711Z,20.78
2023-07-06T06:15:28.913Z,20.78
2023-07-06T06:20:38.001Z,20.68
2023-07-06T06:25:40.225Z,20.60
2023-07-06T06:30:43.123Z,20.09
2023-07-06T06:35:48.302Z,20.20
2023-07-06T06:40:50.772Z,20.55
2023-07-06T06:45:53.242Z,20.79
2023-07-06T06:50:57.342Z,20.89
2023-07-06T06:55:59.439Z,20.71
2023-07-06T07:01:03.578Z,20.61
2023-07-06T07:06:14.238Z,20.55
2023-07-06T07:11:24.057Z,20.65
2023-07-06T07:16:26.962Z,20.83
2023-07-06T07:21:30.236Z,21.02
2023-07-06T07:26:32.430Z,21.24
2023-07-06T07:31:34.637Z,21.36
2023-07-06T07:36:37.604Z,21.68
2023-07-06T07:41:44.226Z,21.91
2023-07-06T07:46:46.501Z,22.39
2023-07-06T07:51:48.677Z,22.67
2023-07-06T07:56:55.286Z,22.85
2023-07-06T08:01:57.553Z,22.86
2023-07-06T08:06:59.761Z,22.83
2023-07-06T08:12:04.281Z,22.94
2023-07-06T08:17:07.034Z,23.00
2023-07-06T08:22:10.367Z,23.13
2023-07-06T08:27:15.040Z,23.59
2023-07-06T08:32:20.816Z,23.61
2023-07-06T08:37:23.225Z,23.61
2023-07-06T08:42:26.309Z,24.10
2023-07-06T08:47:29.627Z,24.61
2023-07-06T08:52:32.904Z,25.09
2023-07-06T08:57:35.057Z,25.43
2023-07-06T09:02:38.149Z,25.62
2023-07-06T09:07:43.685Z,25.67
2023-07-06T09:12:46.011Z,26.27
2023-07-06T09:17:53.601Z,26.69
2023-07-06T09:22:55.876Z,26.95
2023-07-06T09:27:59.556Z,27.10
2023-07-06T09:33:08.108Z,26.85
2023-07-06T09:38:14.930Z,26.71
2023-07-06T09:43:22.495Z,26.76
2023-07-06T09:48:40.420Z,27.07
2023-07-06T09:54:00.048Z,27.06
2023-07-06T09:59:02.192Z,26.79
2023-07-06T10:04:25.694Z,26.46
2023-07-06T10:09:38.764Z,26.23
2023-07-06T10:14:45.379Z,26.15
2023-07-06T10:20:01.889Z,25.94
2023-07-06T10:25:15.861Z,25.55
2023-07-06T10:30:34.976Z,25.87
2023-07-06T10:35:46.789Z,26.11
2023-07-06T10:41:11.352Z,27.21
2023-07-06T10:46:38.652Z,27.41
2023-07-06T10:52:01.527Z,27.31
2023-07-06T10:57:11.711Z,27.30
2023-07-06T11:02:41.791Z,27.55
2023-07-06T11:07:51.774Z,28.45
2023-07-06T11:13:02.962Z,28.69
2023-07-06T11:18:20.222Z,29.08
2023-07-06T11:23:47.327Z,29.00
2023-07-06T11:28:50.408Z,29.18
2023-07-06T11:34:04.836Z,29.14
2023-07-06T11:39:23.865Z,28.77
2023-07-06T11:44:36.485Z,28.68
2023-07-06T11:49:44.715Z,29.02
2023-07-06T11:54:52.921Z,29.46
2023-07-06T12:00:22.810Z,29.89
2023-07-06T12:05:34.802Z,30.37
2023-07-06T12:10:40.278Z,30.50
2023-07-06T12:15:42.494Z,29.90
2023-07-06T12:20:44.714Z,30.25
2023-07-06T12:25:47.268Z,29.62
2023-07-06T12:30:50.315Z,28.91
2023-07-06T12:35:54.585Z,29.53
2023-07-06T12:41:20.479Z,28.88
2023-07-06T12:46:24.158Z,29.53
2023-07-06T12:51:26.742Z,30.11
2023-07-06T12:56:30.432Z,30.76
2023-07-06T13:01:44.322Z,31.32
2023-07-06T13:06:54.153Z,31.79
2023-07-06T13:12:01.183Z,32.15
2023-07-06T13:17:25.579Z,32.42
2023-07-06T13:22:28.576Z,32.63
2023-07-06T13:27:30.689Z,32.42
2023-07-06T13:32:35.835Z,32.49
2023-07-06T13:37:42.180Z,32.86
2023-07-06T13:42:47.577Z,33.22
2023-07-06T13:47:49.872Z,32.81
2023-07-06T13:52:56.867Z,33.05
2023-07-06T13:57:59.415Z,32.32
2023-07-06T14:03:01.623Z,32.72
2023-07-06T14:08:04.052Z,31.61
2023-07-06T14:13:08.103Z,31.66
2023-07-06T14:18:11.446Z,32.27
2023-07-06T14:23:16.569Z,32.37
2023-07-06T14:28:20.431Z,32.35
2023-07-06T14:33:25.466Z,32.07
2023-07-06T14:38:27.849Z,32.13
2023-07-06T14:43:34.002Z,32.19
2023-07-06T14:48:36.302Z,31.16
2023-07-06T14:53:40.239Z,30.28
2023-07-06T14:58:42.574Z,29.71
2023-07-06T15:03:45.030Z,30.14
2023-07-06T15:08:48.186Z,31.09
2023-07-06T15:13:50.406Z,31.39
2023-07-06T15:18:52.634Z,31.56
2023-07-06T15:23:55.229Z,31.11
2023-07-06T15:28:57.393Z,31.24
2023-07-06T15:33:59.530Z,31.14
2023-07-06T15:39:01.824Z,31.17
2023-07-06T15:44:04.154Z,30.97
2023-07-06T15:49:07.659Z,30.69
2023-07-06T15:54:11.277Z,30.55
2023-07-06T15:59:14.517Z,30.39
2023-07-06T16:04:17.156Z,30.13
2023-07-06T16:09:19.318Z,29.81
2023-07-06T16:14:23.779Z,29.46
2023-07-06T16:19:27.059Z,29.00
2023-07-06T16:24:29.166Z,28.71
2023-07-06T16:29:31.341Z,28.62
2023-07-06T16:34:33.461Z,28.36
2023-07-06T16:39:35.842Z,28.33
2023-07-06T16:44:37.922Z,27.90
2023-07-06T16:49:40.101Z,27.61
2023-07-06T16:54:42.260Z,27.38
2023-07-06T16:59:44.342Z,27.26
2023-07-06T17:04:46.463Z,27.15
2023-07-06T17:09:48.616Z,27.16
2023-07-06T17:14:50.826Z,26.91
2023-07-06T17:19:52.989Z,26.72
2023-07-06T17:24:55.174Z,26.50
2023-07-06T17:29:57.560Z,26.39
2023-07-06T17:34:59.662Z,26.19
2023-07-06T17:40:04.353Z,26.07
2023-07-06T17:45:07.031Z,26.01
2023-07-06T17:50:09.483Z,25.88
2023-07-06T17:55:11.629Z,25.86
2023-07-06T18:00:14.315Z,25.80
2023-07-06T18:05:17.749Z,25.74
2023-07-06T18:10:19.900Z,25.62
2023-07-06T18:15:22.116Z,25.52
2023-07-06T18:20:24.325Z,25.42
2023-07-06T18:25:27.222Z,25.32
2023-07-06T18:30:29.426Z,25.10
2023-07-06T18:35:32.048Z,25.06
2023-07-06T18:40:34.193Z,25.02
2023-07-06T18:45:42.286Z,24.89
2023-07-06T18:50:47.393Z,24.83
2023-07-06T18:55:50.227Z,24.79
2023-07-06T19:00:52.703Z,24.77
2023-07-06T19:05:54.958Z,24.69
2023-07-06T19:10:57.214Z,24.62
2023-07-06T19:16:00.874Z,24.59
2023-07-06T19:21:03.016Z,24.41
2023-07-06T19:26:05.428Z,24.26
2023-07-06T19:31:07.673Z,24.10
2023-07-06T19:36:09.937Z,24.04
2023-07-06T19:41:12.100Z,23.94
2023-07-06T19:46:20.357Z,23.92
2023-07-06T19:51:24.612Z,23.86
2023-07-06T19:56:29.834Z,23.76
2023-07-06T20:01:32.900Z,23.60
2023-07-06T20:06:35.111Z,23.50
2023-07-06T20:11:37.344Z,23.45
2023-07-06T20:16:39.515Z,23.48
2023-07-06T20:21:41.693Z,23.34
2023-07-06T20:26:45.532Z,23.27
